createdAt,value
2023-03-29T00:00:14.485Z,1.80
2023-03-29T00:02:43.253Z,1.97
2023-03-29T00:05:12.395Z,2.00
2023-03-29T00:07:41.329Z,2.07
2023-03-29T00:10:11.175Z,2.10
2023-03-29T00:12:41.110Z,1.80
2023-03-29T00:15:11.830Z,2.10
2023-03-29T00:17:40.259Z,2.13
2023-03-29T00:20:10.317Z,1.60
2023-03-29T00:22:42.271Z,1.83
2023-03-29T00:25:11.502Z,2.13
2023-03-29T00:27:39.975Z,3.90
2023-03-29T00:30:11.295Z,4.10
2023-03-29T00:32:39.501Z,3.27
2023-03-29T00:35:09.138Z,4.40
2023-03-29T00:37:38.103Z,4.50
2023-03-29T00:40:09.893Z,3.93
2023-03-29T00:42:38.249Z,4.13
2023-03-29T00:45:18.868Z,3.83
2023-03-29T00:47:51.596Z,3.70
2023-03-29T00:50:25.943Z,3.37
2023-03-29T00:53:00.952Z,3.83
2023-03-29T00:55:34.263Z,3.40
2023-03-29T00:58:05.236Z,2.63
2023-03-29T01:00:38.044Z,2.30
2023-03-29T01:03:13.893Z,2.13
2023-03-29T01:05:46.623Z,2.20
2023-03-29T01:08:20.849Z,2.23
2023-03-29T01:10:52.413Z,2.20
2023-03-29T01:13:26.426Z,2.37
2023-03-29T01:15:57.637Z,2.23
2023-03-29T01:18:27.780Z,2.53
2023-03-29T01:21:15.512Z,2.23
2023-03-29T01:23:58.395Z,2.27
2023-03-29T01:26:37.288Z,2.33
2023-03-29T01:29:11.066Z,2.40
2023-03-29T01:31:43.470Z,2.60
2023-03-29T01:34:16.217Z,2.40
2023-03-29T01:36:51.674Z,2.40
2023-03-29T01:39:20.645Z,2.23
2023-03-29T01:41:57.942Z,2.63
2023-03-29T01:44:33.123Z,2.50
2023-03-29T01:47:08.355Z,2.37
2023-03-29T01:49:42.305Z,2.30
2023-03-29T01:52:18.100Z,2.40
2023-03-29T01:54:51.954Z,3.10
2023-03-29T01:57:25.187Z,2.50
2023-03-29T01:59:57.743Z,3.10
2023-03-29T02:02:29.064Z,3.23
2023-03-29T02:04:59.433Z,2.70
2023-03-29T02:07:32.414Z,3.00
2023-03-29T02:10:01.033Z,2.70
2023-03-29T02:12:29.246Z,3.20
2023-03-29T02:15:00.853Z,3.13
2023-03-29T02:17:30.100Z,3.80
2023-03-29T02:20:02.120Z,3.63
2023-03-29T02:22:37.802Z,3.47
2023-03-29T02:25:09.578Z,3.20
2023-03-29T02:27:39.242Z,3.70
2023-03-29T02:30:11.990Z,3.63
2023-03-29T02:32:50.322Z,3.10
2023-03-29T02:35:24.890Z,3.60
2023-03-29T02:37:56.505Z,3.50
2023-03-29T02:40:26.121Z,3.90
2023-03-29T02:42:56.801Z,4.33
2023-03-29T02:45:27.778Z,4.37
2023-03-29T02:47:58.719Z,3.57
2023-03-29T02:50:30.367Z,4.83
2023-03-29T02:53:01.863Z,4.77
2023-03-29T02:55:34.885Z,5.93
2023-03-29T02:58:08.051Z,4.50
2023-03-29T03:00:40.919Z,4.10
2023-03-29T03:03:10.390Z,3.50
2023-03-29T03:05:39.134Z,3.97
2023-03-29T03:08:08.780Z,3.03
2023-03-29T03:10:37.218Z,2.70
2023-03-29T03:13:05.878Z,2.40
2023-03-29T03:15:35.929Z,2.43
2023-03-29T03:18:05.936Z,2.27
2023-03-29T03:20:34.828Z,2.40
2023-03-29T03:23:04.315Z,1.80
2023-03-29T03:25:33.254Z,1.77
2023-03-29T03:28:01.492Z,1.87
2023-03-29T03:30:30.010Z,2.10
2023-03-29T03:33:29.243Z,2.40
2023-03-29T03:36:36.201Z,2.20
2023-03-29T03:39:07.241Z,2.80
2023-03-29T03:41:36.027Z,3.23
2023-03-29T03:44:04.374Z,2.57
2023-03-29T03:46:32.771Z,2.70
2023-03-29T03:49:03.129Z,2.63
2023-03-29T03:51:34.467Z,2.47
2023-03-29T03:54:02.822Z,2.43
2023-03-29T03:56:37.420Z,2.60
2023-03-29T03:59:05.953Z,2.63
2023-03-29T04:01:51.156Z,2.33
2023-03-29T04:04:24.873Z,2.07
2023-03-29T04:07:19.569Z,2.30
2023-03-29T04:09:56.499Z,2.20
2023-03-29T04:12:50.654Z,2.50
2023-03-29T04:15:20.386Z,3.07
2023-03-29T04:18:01.521Z,2.53
2023-03-29T04:20:37.514Z,2.40
2023-03-29T04:23:06.142Z,2.57
2023-03-29T04:25:35.389Z,2.70
2023-03-29T04:28:23.936Z,2.60
2023-03-29T04:31:13.378Z,2.63
2023-03-29T04:33:49.195Z,3.77
2023-03-29T04:36:18.926Z,3.70
2023-03-29T04:38:48.111Z,3.23
2023-03-29T04:41:17.596Z,4.40
2023-03-29T04:43:59.667Z,3.77
2023-03-29T04:46:32.556Z,3.87
2023-03-29T04:49:19.280Z,3.93
2023-03-29T04:51:53.391Z,4.43
2023-03-29T04:54:25.277Z,3.77
2023-03-29T04:57:09.637Z,4.10
2023-03-29T04:59:56.514Z,6.03
2023-03-29T05:02:46.062Z,4.70
2023-03-29T05:05:15.313Z,4.47
2023-03-29T05:07:46.735Z,4.00
2023-03-29T05:10:16.321Z,4.93
2023-03-29T05:12:44.533Z,4.27
2023-03-29T05:15:13.529Z,3.73
2023-03-29T05:17:42.439Z,5.13
2023-03-29T05:20:14.095Z,3.80
2023-03-29T05:22:46.272Z,3.77
2023-03-29T05:25:26.437Z,3.67
2023-03-29T05:27:54.618Z,3.70
2023-03-29T05:30:22.946Z,4.20
2023-03-29T05:33:07.078Z,3.47
2023-03-29T05:35:36.721Z,4.00
2023-03-29T05:38:09.685Z,3.70
2023-03-29T05:40:38.756Z,3.80
2023-03-29T05:43:26.055Z,3.80
2023-03-29T05:45:55.191Z,4.70
2023-03-29T05:48:24.473Z,4.70
2023-03-29T05:50:54.732Z,3.70
2023-03-29T05:53:25.871Z,3.67
2023-03-29T05:55:55.761Z,3.73
2023-03-29T05:58:26.857Z,3.10
2023-03-29T06:00:56.105Z,2.80
2023-03-29T06:03:51.471Z,2.77
2023-03-29T06:06:22.346Z,2.67
2023-03-29T06:08:52.093Z,3.10
2023-03-29T06:11:42.068Z,3.20
2023-03-29T06:14:25.715Z,3.27
2023-03-29T06:17:03.559Z,3.40
2023-03-29T06:19:31.946Z,3.33
2023-03-29T06:22:00.189Z,3.83
2023-03-29T06:24:33.440Z,3.20
2023-03-29T06:27:07.180Z,2.93
2023-03-29T06:29:35.340Z,2.77
2023-03-29T06:32:03.571Z,2.73
2023-03-29T06:34:48.335Z,3.10
2023-03-29T06:37:49.579Z,3.33
2023-03-29T06:40:27.470Z,3.10
2023-03-29T06:42:57.963Z,3.47
2023-03-29T06:45:44.965Z,3.40
2023-03-29T06:48:29.535Z,3.40
2023-03-29T06:50:57.860Z,3.43
2023-03-29T06:53:29.798Z,3.80
2023-03-29T06:56:09.305Z,3.40
2023-03-29T06:58:45.771Z,2.97
2023-03-29T07:01:37.549Z,3.10
2023-03-29T07:04:26.321Z,2.60
2023-03-29T07:07:20.150Z,3.17
2023-03-29T07:09:55.714Z,3.43
2023-03-29T07:12:26.493Z,2.40
2023-03-29T07:14:59.692Z,2.63
2023-03-29T07:17:48.624Z,3.20
2023-03-29T07:20:18.303Z,3.53
2023-03-29T07:22:51.221Z,4.03
2023-03-29T07:25:22.546Z,3.40
2023-03-29T07:27:53.286Z,3.07
2023-03-29T07:30:24.262Z,3.83
2023-03-29T07:32:53.837Z,4.80
2023-03-29T07:35:32.848Z,4.30
2023-03-29T07:38:02.203Z,4.23
2023-03-29T07:40:31.297Z,3.93
2023-03-29T07:43:01.453Z,3.70
2023-03-29T07:45:33.014Z,3.67
2023-03-29T07:48:21.216Z,3.47
2023-03-29T07:51:02.264Z,3.27
2023-03-29T07:53:36.058Z,3.27
2023-03-29T07:56:09.003Z,3.70
2023-03-29T07:58:52.951Z,4.03
2023-03-29T08:01:21.776Z,3.90
2023-03-29T08:04:08.969Z,3.80
2023-03-29T08:07:06.551Z,4.30
2023-03-29T08:10:00.966Z,3.57
2023-03-29T08:12:48.908Z,3.90
2023-03-29T08:15:19.880Z,3.10
2023-03-29T08:17:48.379Z,3.90
2023-03-29T08:20:17.330Z,3.63
2023-03-29T08:22:48.930Z,3.83
2023-03-29T08:25:20.052Z,3.60
2023-03-29T08:27:52.292Z,3.87
2023-03-29T08:30:33.283Z,3.70
2023-03-29T08:33:02.542Z,4.00
2023-03-29T08:35:31.135Z,2.87
2023-03-29T08:38:21.860Z,3.57
2023-03-29T08:40:52.024Z,3.47
2023-03-29T08:43:58.127Z,3.23
2023-03-29T08:46:42.453Z,3.70
2023-03-29T08:49:24.023Z,3.07
2023-03-29T08:51:58.071Z,2.97
2023-03-29T08:54:29.957Z,3.40
2023-03-29T08:57:29.209Z,3.37
2023-03-29T09:00:05.762Z,3.00
2023-03-29T09:02:38.366Z,3.07
2023-03-29T09:05:18.865Z,3.30
2023-03-29T09:07:57.059Z,3.40
2023-03-29T09:10:37.356Z,3.10
2023-03-29T09:13:20.650Z,3.07
2023-03-29T09:15:53.544Z,3.23
2023-03-29T09:18:45.582Z,3.10
2023-03-29T09:21:21.603Z,2.67
2023-03-29T09:24:08.654Z,2.53
2023-03-29T09:26:53.625Z,3.40
2023-03-29T09:29:46.609Z,2.90
2023-03-29T09:32:21.682Z,2.77
2023-03-29T09:35:04.512Z,2.80
2023-03-29T09:37:36.762Z,3.40
2023-03-29T09:40:12.606Z,2.83
2023-03-29T09:43:07.454Z,2.77
2023-03-29T09:45:38.571Z,3.03
2023-03-29T09:48:12.806Z,2.90
2023-03-29T09:50:47.407Z,2.53
2023-03-29T09:53:17.164Z,2.90
2023-03-29T09:55:52.668Z,3.10
2023-03-29T09:58:45.237Z,2.13
2023-03-29T10:01:17.486Z,2.60
2023-03-29T10:03:51.679Z,2.60
2023-03-29T10:06:25.633Z,2.63
2023-03-29T10:09:03.092Z,2.37
2023-03-29T10:11:40.132Z,2.40
2023-03-29T10:14:16.491Z,2.07
2023-03-29T10:16:46.589Z,2.50
2023-03-29T10:19:20.813Z,2.63
2023-03-29T10:21:51.659Z,2.73
2023-03-29T10:24:21.820Z,1.80
2023-03-29T10:26:55.622Z,2.10
2023-03-29T10:29:25.531Z,2.47
2023-03-29T10:31:54.495Z,2.10
2023-03-29T10:34:28.218Z,1.90
2023-03-29T10:37:01.426Z,2.00
2023-03-29T10:39:34.569Z,2.23
2023-03-29T10:42:05.359Z,2.13
2023-03-29T10:44:35.806Z,2.07
2023-03-29T10:47:19.679Z,2.10
2023-03-29T10:49:53.207Z,1.90
2023-03-29T10:52:24.661Z,1.60
2023-03-29T10:54:55.546Z,1.80
2023-03-29T10:57:37.324Z,1.73
2023-03-29T11:00:12.528Z,1.80
2023-03-29T11:03:21.692Z,1.90
2023-03-29T11:05:57.471Z,1.70
2023-03-29T11:08:41.738Z,1.70
2023-03-29T11:11:41.320Z,7.80
2023-03-29T11:14:18.080Z,2.37
2023-03-29T11:16:56.006Z,1.70
2023-03-29T11:19:43.497Z,1.63
2023-03-29T11:22:18.197Z,1.80
2023-03-29T11:25:08.215Z,1.93
2023-03-29T11:27:42.943Z,1.50
2023-03-29T11:30:18.144Z,1.90
2023-03-29T11:32:55.231Z,2.10
2023-03-29T11:35:37.189Z,2.07
2023-03-29T11:38:15.200Z,2.30
2023-03-29T11:40:58.785Z,2.17
2023-03-29T11:43:32.201Z,1.93
2023-03-29T11:46:05.054Z,2.10
2023-03-29T11:48:38.365Z,2.13
2023-03-29T11:51:12.263Z,2.00
2023-03-29T11:53:47.667Z,2.10
2023-03-29T11:56:23.379Z,1.97
2023-03-29T11:58:59.102Z,2.20
2023-03-29T12:01:32.747Z,2.37
2023-03-29T12:04:06.924Z,2.83
2023-03-29T12:06:42.385Z,3.43
2023-03-29T12:09:24.063Z,3.50
2023-03-29T12:12:00.638Z,3.30
2023-03-29T12:14:37.940Z,3.03
2023-03-29T12:17:13.201Z,3.07
2023-03-29T12:19:46.525Z,2.93
2023-03-29T12:22:15.567Z,3.00
2023-03-29T12:24:50.099Z,3.30
2023-03-29T12:27:26.656Z,3.87
2023-03-29T12:30:25.194Z,3.70
2023-03-29T12:33:16.098Z,3.88
2023-03-29T12:36:13.743Z,3.53
2023-03-29T12:38:44.116Z,3.83
2023-03-29T12:41:38.326Z,4.23
2023-03-29T12:44:34.552Z,3.57
2023-03-29T12:47:22.226Z,3.50
2023-03-29T12:49:56.220Z,3.53
2023-03-29T12:52:28.685Z,4.53
2023-03-29T12:54:58.862Z,4.30
2023-03-29T12:57:39.740Z,3.63
2023-03-29T13:00:27.258Z,3.50
2023-03-29T13:03:04.279Z,3.37
2023-03-29T13:05:35.198Z,3.63
2023-03-29T13:08:22.950Z,3.50
2023-03-29T13:10:55.513Z,3.83
2023-03-29T13:13:28.781Z,3.30
2023-03-29T13:16:16.704Z,4.13
2023-03-29T13:19:06.768Z,3.57
2023-03-29T13:21:46.566Z,3.80
2023-03-29T13:24:33.131Z,3.30
2023-03-29T13:27:09.966Z,2.97
2023-03-29T13:29:52.530Z,3.77
2023-03-29T13:32:34.677Z,3.20
2023-03-29T13:35:10.731Z,3.13
2023-03-29T13:37:48.820Z,2.40
2023-03-29T13:40:43.734Z,3.47
2023-03-29T13:43:21.734Z,2.40
2023-03-29T13:46:05.388Z,3.00
2023-03-29T13:48:52.892Z,3.20
2023-03-29T13:51:29.083Z,3.33
2023-03-29T13:54:02.848Z,2.83
2023-03-29T13:56:35.972Z,3.23
2023-03-29T13:59:11.517Z,2.70
2023-03-29T14:01:43.915Z,3.00
2023-03-29T14:04:21.671Z,2.73
2023-03-29T14:06:54.139Z,2.37
2023-03-29T14:09:28.217Z,2.60
2023-03-29T14:11:57.553Z,2.70
2023-03-29T14:14:28.730Z,3.25
2023-03-29T14:16:58.433Z,3.42
2023-03-29T14:19:32.626Z,3.33
2023-03-29T14:22:02.218Z,3.45
2023-03-29T14:24:37.060Z,3.40
2023-03-29T14:27:07.200Z,3.40
2023-03-29T14:29:36.672Z,3.78
2023-03-29T14:32:12.789Z,3.30
2023-03-29T14:34:42.524Z,3.63
2023-03-29T14:37:12.810Z,3.58
2023-03-29T14:39:42.242Z,3.58
2023-03-29T14:42:17.772Z,3.13
2023-03-29T14:44:46.082Z,3.42
2023-03-29T14:47:19.136Z,3.28
2023-03-29T14:49:48.829Z,3.45
2023-03-29T14:52:17.445Z,4.30
2023-03-29T14:54:49.621Z,3.30
2023-03-29T14:57:19.459Z,3.03
2023-03-29T14:59:54.942Z,3.00
2023-03-29T15:02:28.591Z,3.50
2023-03-29T15:04:59.817Z,3.13
2023-03-29T15:07:29.628Z,3.20
2023-03-29T15:09:59.528Z,3.20
2023-03-29T15:12:30.781Z,3.20
2023-03-29T15:15:00.374Z,2.70
2023-03-29T15:17:43.122Z,3.63
2023-03-29T15:20:23.562Z,2.93
2023-03-29T15:22:55.204Z,3.43
2023-03-29T15:25:23.996Z,3.03
2023-03-29T15:27:57.178Z,3.40
2023-03-29T15:30:34.835Z,3.13
2023-03-29T15:33:23.160Z,3.37
2023-03-29T15:35:54.744Z,3.27
2023-03-29T15:38:30.234Z,3.37
2023-03-29T15:41:06.526Z,3.90
2023-03-29T15:43:35.310Z,3.57
2023-03-29T15:46:04.058Z,3.53
2023-03-29T15:48:33.751Z,3.70
2023-03-29T15:51:06.354Z,3.73
2023-03-29T15:53:35.211Z,3.67
2023-03-29T15:56:07.486Z,3.70
2023-03-29T15:58:37.996Z,3.73
2023-03-29T16:01:13.778Z,3.30
2023-03-29T16:03:42.315Z,3.27
2023-03-29T16:06:13.697Z,3.27
2023-03-29T16:08:42.151Z,2.90
2023-03-29T16:11:10.415Z,3.07
2023-03-29T16:13:38.690Z,3.63
2023-03-29T16:16:08.446Z,3.17
2023-03-29T16:18:36.901Z,3.40
2023-03-29T16:21:06.443Z,3.57
2023-03-29T16:23:36.047Z,3.03
2023-03-29T16:26:06.603Z,4.77
2023-03-29T16:28:34.938Z,3.40
2023-03-29T16:31:03.243Z,3.93
2023-03-29T16:33:31.636Z,3.70
2023-03-29T16:36:00.230Z,4.33
2023-03-29T16:38:29.380Z,3.57
2023-03-29T16:40:58.926Z,3.90
2023-03-29T16:43:27.368Z,2.90
2023-03-29T16:45:55.703Z,3.33
2023-03-29T16:48:23.963Z,4.60
2023-03-29T16:50:52.259Z,4.83
2023-03-29T16:53:21.624Z,4.23
2023-03-29T16:55:50.692Z,4.70
2023-03-29T16:58:20.730Z,4.13
2023-03-29T17:00:49.670Z,4.10
2023-03-29T17:03:18.046Z,4.23
2023-03-29T17:05:49.158Z,3.27
2023-03-29T17:08:17.848Z,3.07
2023-03-29T17:10:46.489Z,3.50
2023-03-29T17:13:14.868Z,3.97
2023-03-29T17:15:44.546Z,3.93
2023-03-29T17:18:13.991Z,3.80
2023-03-29T17:20:42.686Z,4.37
2023-03-29T17:23:11.452Z,3.47
2023-03-29T17:25:40.683Z,3.43
2023-03-29T17:28:08.935Z,3.57
2023-03-29T17:30:38.422Z,3.50
2023-03-29T17:33:09.703Z,3.80
2023-03-29T17:35:38.225Z,4.57
2023-03-29T17:38:06.719Z,4.40
2023-03-29T17:40:35.228Z,4.40
2023-03-29T17:43:04.159Z,4.07
2023-03-29T17:45:35.751Z,4.10
2023-03-29T17:48:06.086Z,6.20
2023-03-29T17:50:37.296Z,5.80
2023-03-29T17:53:06.786Z,5.17
2023-03-29T17:55:35.126Z,4.33
2023-03-29T17:58:04.155Z,6.03
2023-03-29T18:00:32.992Z,5.93
2023-03-29T18:03:02.180Z,4.83
2023-03-29T18:05:31.396Z,5.40
2023-03-29T18:08:03.069Z,5.40
2023-03-29T18:10:32.835Z,4.70
2023-03-29T18:13:02.278Z,6.47
2023-03-29T18:15:31.268Z,6.87
2023-03-29T18:18:00.680Z,6.40
2023-03-29T18:20:29.469Z,5.97
2023-03-29T18:22:58.979Z,5.93
2023-03-29T18:25:29.988Z,5.13
2023-03-29T18:27:59.228Z,4.87
2023-03-29T18:30:29.560Z,4.63
2023-03-29T18:32:59.668Z,4.40
2023-03-29T18:35:29.677Z,5.87
2023-03-29T18:37:58.914Z,5.63
2023-03-29T18:40:32.565Z,4.33
2023-03-29T18:43:02.533Z,4.33
2023-03-29T18:45:32.742Z,4.60
2023-03-29T18:48:02.482Z,4.97
2023-03-29T18:50:32.939Z,5.20
2023-03-29T18:53:02.759Z,5.43
2023-03-29T18:55:34.038Z,5.23
2023-03-29T18:58:05.501Z,5.00
2023-03-29T19:00:36.033Z,5.10
2023-03-29T19:03:05.648Z,5.40
2023-03-29T19:05:36.694Z,6.17
2023-03-29T19:08:08.272Z,6.70
2023-03-29T19:10:40.686Z,6.80
2023-03-29T19:13:14.548Z,6.17
2023-03-29T19:15:44.354Z,4.83
2023-03-29T19:18:15.134Z,4.93
2023-03-29T19:20:46.339Z,6.30
2023-03-29T19:23:17.916Z,6.47
2023-03-29T19:25:54.839Z,5.40
2023-03-29T19:28:26.149Z,6.00
2023-03-29T19:30:56.483Z,6.83
2023-03-29T19:33:26.059Z,6.73
2023-03-29T19:35:56.499Z,8.33
2023-03-29T19:38:26.382Z,6.27
2023-03-29T19:40:57.320Z,6.10
2023-03-29T19:43:29.826Z,4.97
2023-03-29T19:46:07.525Z,5.97
2023-03-29T19:48:37.514Z,5.37
2023-03-29T19:51:08.500Z,5.77
2023-03-29T19:53:39.004Z,5.57
2023-03-29T19:56:11.257Z,6.03
2023-03-29T19:58:41.369Z,5.57
2023-03-29T20:01:10.272Z,5.80
2023-03-29T20:03:41.631Z,5.30
2023-03-29T20:06:12.255Z,6.17
2023-03-29T20:08:41.611Z,6.53
2023-03-29T20:11:16.538Z,7.33
2023-03-29T20:13:46.254Z,6.17
2023-03-29T20:16:16.620Z,6.93
2023-03-29T20:18:46.714Z,7.23
2023-03-29T20:21:18.467Z,7.53
2023-03-29T20:23:49.672Z,6.80
2023-03-29T20:26:19.577Z,7.57
2023-03-29T20:28:48.002Z,8.17
2023-03-29T20:31:17.203Z,6.90
2023-03-29T20:33:46.127Z,6.83
2023-03-29T20:36:18.558Z,6.50
2023-03-29T20:38:46.967Z,6.30
2023-03-29T20:41:15.325Z,6.30
2023-03-29T20:43:46.296Z,6.93
2023-03-29T20:46:23.905Z,6.80
2023-03-29T20:48:54.159Z,6.00
2023-03-29T20:51:30.358Z,6.33
2023-03-29T20:54:02.833Z,5.80
2023-03-29T20:56:31.741Z,6.20
2023-03-29T20:59:01.920Z,6.07
2023-03-29T21:01:31.295Z,6.60
2023-03-29T21:03:59.862Z,5.90
2023-03-29T21:06:28.489Z,5.93
2023-03-29T21:08:57.506Z,5.60
2023-03-29T21:11:25.798Z,5.70
2023-03-29T21:13:54.099Z,5.40
2023-03-29T21:16:25.324Z,5.63
2023-03-29T21:18:54.584Z,5.27
2023-03-29T21:21:23.144Z,5.80
2023-03-29T21:23:51.459Z,5.00
2023-03-29T21:26:19.716Z,5.43
2023-03-29T21:28:48.747Z,4.40
2023-03-29T21:31:17.075Z,4.63
2023-03-29T21:33:46.768Z,5.33
2023-03-29T21:36:15.012Z,5.80
2023-03-29T21:38:43.259Z,5.77
2023-03-29T21:41:12.115Z,6.30
2023-03-29T21:43:40.503Z,5.70
2023-03-29T21:46:09.103Z,5.40
2023-03-29T21:48:37.360Z,5.70
2023-03-29T21:51:07.508Z,5.90
2023-03-29T21:53:36.239Z,5.30
2023-03-29T21:56:04.846Z,5.20
2023-03-29T21:58:33.087Z,5.80
2023-03-29T22:01:03.879Z,5.83
2023-03-29T22:03:32.442Z,5.60
2023-03-29T22:06:03.600Z,5.27
2023-03-29T22:08:33.137Z,5.57
2023-03-29T22:11:08.329Z,6.10
2023-03-29T22:13:36.804Z,5.53
2023-03-29T22:16:06.193Z,5.67
2023-03-29T22:18:43.303Z,5.60
2023-03-29T22:21:14.524Z,5.33
2023-03-29T22:23:45.947Z,5.97
2023-03-29T22:26:16.165Z,6.53
2023-03-29T22:28:44.626Z,5.43
2023-03-29T22:31:15.171Z,6.03
2023-03-29T22:33:44.059Z,5.60
2023-03-29T22:36:16.885Z,6.13
2023-03-29T22:38:48.114Z,6.77
2023-03-29T22:41:17.589Z,6.53
2023-03-29T22:43:46.192Z,6.23
2023-03-29T22:46:15.418Z,6.33
2023-03-29T22:48:43.613Z,6.77
2023-03-29T22:51:11.906Z,6.47
2023-03-29T22:53:40.116Z,6.43
2023-03-29T22:56:10.562Z,6.90
2023-03-29T22:58:39.160Z,7.03
2023-03-29T23:01:08.292Z,6.73
2023-03-29T23:03:36.930Z,6.27
2023-03-29T23:06:05.662Z,6.40
2023-03-29T23:08:35.128Z,6.47
2023-03-29T23:11:04.459Z,6.17
2023-03-29T23:13:35.298Z,6.60
2023-03-29T23:16:04.963Z,6.13
2023-03-29T23:18:34.931Z,6.70
2023-03-29T23:21:05.874Z,7.10
2023-03-29T23:23:34.698Z,6.83
2023-03-29T23:26:02.891Z,7.03
2023-03-29T23:28:31.506Z,7.20
2023-03-29T23:31:03.410Z,7.33
2023-03-29T23:33:35.483Z,7.07
2023-03-29T23:36:06.057Z,6.63
2023-03-29T23:38:36.607Z,6.60
2023-03-29T23:41:06.849Z,6.67
2023-03-29T23:43:37.356Z,6.60
2023-03-29T23:46:09.027Z,6.77
2023-03-29T23:48:37.253Z,5.83
2023-03-29T23:51:06.148Z,6.57
2023-03-29T23:53:34.571Z,6.40
2023-03-29T23:56:05.237Z,6.43
2023-03-29T23:58:35.182Z,6.13
